createdAt,value
2019-03-08T00:00:41.814Z,8.20
2019-03-08T00:03:10.805Z,8.20
2019-03-08T00:05:39.773Z,8.20
2019-03-08T00:08:08.866Z,8.20
2019-03-08T00:10:37.854Z,8.20
2019-03-08T00:13:08.490Z,8.20
2019-03-08T00:15:37.731Z,8.20
2019-03-08T00:18:06.653Z,8.20
2019-03-08T00:20:35.552Z,8.10
2019-03-08T00:23:05.379Z,8.20
2019-03-08T00:25:34.282Z,8.20
2019-03-08T00:28:03.154Z,8.20
2019-03-08T00:30:32.141Z,8.20
2019-03-08T00:33:01.119Z,8.20
2019-03-08T00:35:30.035Z,8.30
2019-03-08T00:37:59.068Z,8.20
2019-03-08T00:40:27.977Z,8.10
2019-03-08T00:42:56.905Z,8.10
2019-03-08T00:45:26.169Z,8.10
2019-03-08T00:47:55.142Z,8.00
2019-03-08T00:50:24.157Z,8.10
2019-03-08T00:52:53.229Z,8.10
2019-03-08T00:55:22.165Z,8.00
2019-03-08T00:57:51.093Z,8.00
2019-03-08T01:00:20.413Z,8.00
2019-03-08T01:02:49.430Z,7.90
2019-03-08T01:05:18.702Z,8.00
2019-03-08T01:07:47.685Z,7.90
2019-03-08T01:10:17.689Z,8.00
2019-03-08T01:12:46.900Z,8.00
2019-03-08T01:15:17.221Z,8.00
2019-03-08T01:17:46.339Z,8.00
2019-03-08T01:20:16.258Z,8.00
2019-03-08T01:22:45.203Z,8.00
2019-03-08T01:25:15.013Z,8.00
2019-03-08T01:28:04.986Z,8.00
2019-03-08T01:30:34.240Z,8.00
2019-03-08T01:33:03.394Z,8.00
2019-03-08T01:35:32.490Z,8.00
2019-03-08T01:38:01.740Z,7.90
2019-03-08T01:40:30.930Z,7.90
2019-03-08T01:42:59.818Z,7.90
2019-03-08T01:45:28.942Z,7.90
2019-03-08T01:47:58.095Z,7.80
2019-03-08T01:50:27.508Z,7.80
2019-03-08T01:52:56.464Z,7.80
2019-03-08T01:55:25.446Z,7.90
2019-03-08T01:57:54.488Z,7.80
2019-03-08T02:00:23.659Z,7.80
2019-03-08T02:02:52.645Z,7.90
2019-03-08T02:05:22.260Z,7.80
2019-03-08T02:07:51.358Z,7.80
2019-03-08T02:10:20.538Z,8.90
2019-03-08T02:12:49.633Z,7.80
2019-03-08T02:15:19.788Z,7.80
2019-03-08T02:17:49.227Z,7.80
2019-03-08T02:20:19.925Z,7.70
2019-03-08T02:22:49.569Z,7.80
2019-03-08T02:25:18.550Z,7.80
2019-03-08T02:27:47.812Z,7.80
2019-03-08T02:30:17.191Z,7.80
2019-03-08T02:32:46.420Z,7.80
2019-03-08T02:35:16.954Z,7.80
2019-03-08T02:37:46.036Z,7.90
2019-03-08T02:40:31.964Z,7.90
2019-03-08T02:43:01.816Z,7.80
2019-03-08T02:45:31.059Z,7.80
2019-03-08T02:48:00.088Z,7.80
2019-03-08T02:50:29.327Z,7.90
2019-03-08T02:52:58.422Z,7.90
2019-03-08T02:55:27.421Z,7.90
2019-03-08T02:57:56.495Z,7.90
2019-03-08T03:00:29.191Z,8.00
2019-03-08T03:02:58.107Z,7.90
2019-03-08T03:05:27.038Z,8.00
2019-03-08T03:07:55.919Z,8.00
2019-03-08T03:10:25.151Z,8.00
2019-03-08T03:12:54.184Z,8.00
2019-03-08T03:15:23.254Z,8.00
2019-03-08T03:17:52.145Z,8.00
2019-03-08T03:20:22.816Z,8.00
2019-03-08T03:22:51.770Z,8.10
2019-03-08T03:25:20.879Z,8.10
2019-03-08T03:27:49.777Z,8.20
2019-03-08T03:30:19.261Z,8.20
2019-03-08T03:32:48.422Z,8.30
2019-03-08T03:35:17.399Z,8.30
2019-03-08T03:37:46.777Z,8.40
2019-03-08T03:40:15.828Z,8.40
2019-03-08T03:42:44.818Z,8.40
2019-03-08T03:45:14.372Z,8.40
2019-03-08T03:47:43.478Z,8.40
2019-03-08T03:50:12.812Z,8.40
2019-03-08T03:52:41.946Z,8.40
2019-03-08T03:55:12.289Z,8.40
2019-03-08T03:57:41.270Z,8.50
2019-03-08T04:00:12.808Z,8.50
2019-03-08T04:02:41.913Z,8.50
2019-03-08T04:05:11.298Z,8.40
2019-03-08T04:07:40.229Z,8.40
2019-03-08T04:10:10.485Z,8.40
2019-03-08T04:12:39.405Z,8.50
2019-03-08T04:15:10.235Z,8.40
2019-03-08T04:17:39.136Z,8.50
2019-03-08T04:20:09.647Z,8.50
2019-03-08T04:22:38.574Z,8.50
2019-03-08T04:25:07.657Z,8.40
2019-03-08T04:27:36.703Z,8.40
2019-03-08T04:30:06.127Z,8.40
2019-03-08T04:32:35.050Z,8.40
2019-03-08T04:35:04.234Z,8.40
2019-03-08T04:37:33.114Z,8.50
2019-03-08T04:40:02.038Z,8.60
2019-03-08T04:42:30.929Z,8.70
2019-03-08T04:44:59.831Z,8.70
2019-03-08T04:47:29.065Z,8.70
2019-03-08T04:49:57.995Z,8.80
2019-03-08T04:52:26.939Z,8.90
2019-03-08T04:54:55.821Z,8.90
2019-03-08T04:57:24.713Z,9.00
2019-03-08T04:59:53.596Z,9.00
2019-03-08T05:02:22.775Z,9.00
2019-03-08T05:04:51.667Z,9.00
2019-03-08T05:07:20.514Z,9.00
2019-03-08T05:09:49.420Z,9.00
2019-03-08T05:12:18.290Z,9.00
2019-03-08T05:14:47.186Z,9.00
2019-03-08T05:17:16.318Z,9.00
2019-03-08T05:19:45.272Z,9.00
2019-03-08T05:22:14.307Z,9.10
2019-03-08T05:24:43.215Z,9.10
2019-03-08T05:27:12.167Z,9.20
2019-03-08T05:29:41.224Z,9.20
2019-03-08T05:32:10.411Z,9.10
2019-03-08T05:34:41.755Z,9.10
2019-03-08T05:37:10.654Z,9.10
2019-03-08T05:39:39.607Z,9.20
2019-03-08T05:42:08.665Z,9.20
2019-03-08T05:44:37.579Z,9.20
2019-03-08T05:47:06.504Z,9.20
2019-03-08T05:49:35.426Z,9.20
2019-03-08T05:52:04.418Z,9.20
2019-03-08T05:54:33.361Z,9.20
2019-03-08T05:57:02.247Z,9.30
2019-03-08T05:59:31.151Z,9.30
2019-03-08T06:02:00.088Z,9.30
2019-03-08T06:04:29.012Z,9.30
2019-03-08T06:06:57.919Z,9.30
2019-03-08T06:09:26.777Z,9.30
2019-03-08T06:11:55.755Z,9.30
2019-03-08T06:14:24.717Z,9.40
2019-03-08T06:16:53.790Z,9.40
2019-03-08T06:19:22.711Z,9.50
2019-03-08T06:21:51.595Z,9.50
2019-03-08T06:24:20.452Z,9.50
2019-03-08T06:26:49.367Z,9.50
2019-03-08T06:29:20.975Z,9.50
2019-03-08T06:31:49.921Z,9.60
2019-03-08T06:34:18.846Z,9.60
2019-03-08T06:36:47.755Z,9.60
2019-03-08T06:39:16.723Z,9.60
2019-03-08T06:41:45.569Z,9.70
2019-03-08T06:44:14.515Z,9.70
2019-03-08T06:46:43.405Z,9.70
2019-03-08T06:49:12.347Z,9.70
2019-03-08T06:51:41.242Z,9.70
2019-03-08T06:54:10.262Z,9.70
2019-03-08T06:56:39.183Z,9.70
2019-03-08T06:59:15.828Z,9.80
2019-03-08T07:01:44.786Z,9.80
2019-03-08T07:04:13.663Z,9.70
2019-03-08T07:06:42.557Z,9.70
2019-03-08T07:09:11.447Z,9.60
2019-03-08T07:11:40.335Z,9.60
2019-03-08T07:14:09.531Z,9.60
2019-03-08T07:16:38.533Z,9.70
2019-03-08T07:19:07.440Z,9.70
2019-03-08T07:21:49.411Z,9.70
2019-03-08T07:24:33.704Z,9.70
2019-03-08T07:27:24.959Z,9.80
2019-03-08T07:30:19.396Z,9.80
2019-03-08T07:32:56.373Z,9.80
2019-03-08T07:35:35.553Z,9.90
2019-03-08T07:38:20.505Z,9.90
2019-03-08T07:41:07.378Z,9.90
2019-03-08T07:44:13.542Z,9.90
2019-03-08T07:47:00.618Z,9.90
2019-03-08T07:49:39.341Z,9.90
2019-03-08T07:52:23.522Z,10.00
2019-03-08T07:55:04.674Z,9.90
2019-03-08T07:57:51.696Z,9.90
2019-03-08T08:00:45.696Z,10.00
2019-03-08T08:03:32.865Z,10.00
2019-03-08T08:06:14.048Z,10.00
2019-03-08T08:08:54.047Z,10.00
2019-03-08T08:11:54.043Z,10.00
2019-03-08T08:14:40.004Z,10.00
2019-03-08T08:17:27.042Z,10.10
2019-03-08T08:20:33.693Z,10.10
2019-03-08T08:23:11.160Z,10.20
2019-03-08T08:26:02.216Z,10.20
2019-03-08T08:28:49.453Z,10.20
2019-03-08T08:31:39.630Z,10.30
2019-03-08T08:34:17.753Z,10.20
2019-03-08T08:37:01.425Z,10.30
2019-03-08T08:40:02.678Z,10.40
2019-03-08T08:42:49.448Z,10.50
2019-03-08T08:45:43.674Z,10.40
2019-03-08T08:48:34.611Z,10.40
2019-03-08T08:51:13.600Z,10.40
2019-03-08T08:53:53.421Z,10.30
2019-03-08T08:56:44.532Z,10.30
2019-03-08T08:59:45.223Z,10.30
2019-03-08T09:02:39.381Z,10.20
2019-03-08T09:05:19.381Z,10.20
2019-03-08T09:07:53.852Z,10.20
2019-03-08T09:10:41.948Z,10.20
2019-03-08T09:13:22.178Z,10.20
2019-03-08T09:16:08.082Z,10.30
2019-03-08T09:18:55.144Z,10.30
2019-03-08T09:21:37.267Z,10.40
2019-03-08T09:24:24.151Z,10.40
2019-03-08T09:27:06.954Z,10.40
2019-03-08T09:29:46.764Z,10.40
2019-03-08T09:32:30.956Z,10.40
2019-03-08T09:35:05.915Z,10.30
2019-03-08T09:37:39.594Z,10.20
2019-03-08T09:40:32.124Z,10.00
2019-03-08T09:43:20.446Z,9.90
2019-03-08T09:46:01.983Z,9.90
2019-03-08T09:48:52.100Z,9.90
2019-03-08T09:51:30.599Z,9.80
2019-03-08T09:54:30.631Z,9.80
2019-03-08T09:57:13.557Z,9.90
2019-03-08T09:59:54.513Z,9.90
2019-03-08T10:02:48.795Z,9.80
2019-03-08T10:05:34.381Z,9.60
2019-03-08T10:08:18.902Z,9.50
2019-03-08T10:10:58.397Z,9.40
2019-03-08T10:13:33.558Z,9.20
2019-03-08T10:16:21.794Z,9.10
2019-03-08T10:19:15.708Z,9.00
2019-03-08T10:22:03.809Z,9.00
2019-03-08T10:24:44.875Z,9.20
2019-03-08T10:27:38.121Z,9.30
2019-03-08T10:30:14.811Z,9.40
2019-03-08T10:33:15.280Z,9.50
2019-03-08T10:35:59.845Z,9.60
2019-03-08T10:38:34.428Z,9.80
2019-03-08T10:41:12.194Z,10.10
2019-03-08T10:44:09.100Z,10.20
2019-03-08T10:46:44.996Z,10.20
2019-03-08T10:49:22.576Z,10.40
2019-03-08T10:52:22.458Z,10.50
2019-03-08T10:55:09.399Z,10.70
2019-03-08T10:57:46.324Z,10.80
2019-03-08T11:00:22.867Z,10.80
2019-03-08T11:03:00.043Z,10.90
2019-03-08T11:05:46.819Z,11.10
2019-03-08T11:08:33.607Z,10.90
2019-03-08T11:11:20.459Z,10.50
2019-03-08T11:14:03.460Z,9.90
2019-03-08T11:16:48.992Z,9.30
2019-03-08T11:19:36.137Z,8.80
2019-03-08T11:22:30.281Z,8.60
2019-03-08T11:25:16.985Z,8.50
2019-03-08T11:28:04.048Z,8.40
2019-03-08T11:30:58.192Z,8.40
2019-03-08T11:33:49.394Z,8.40
2019-03-08T11:36:29.280Z,8.40
2019-03-08T11:39:20.114Z,8.50
2019-03-08T11:41:57.176Z,8.60
2019-03-08T11:44:53.529Z,8.70
2019-03-08T11:47:41.158Z,8.70
2019-03-08T11:50:50.392Z,8.70
2019-03-08T11:53:56.199Z,8.70
2019-03-08T11:56:40.615Z,8.60
2019-03-08T11:59:31.852Z,8.50
2019-03-08T12:02:16.619Z,8.50
2019-03-08T12:04:57.754Z,8.50
2019-03-08T12:07:32.653Z,8.50
2019-03-08T12:10:27.024Z,8.60
2019-03-08T12:13:15.079Z,8.70
2019-03-08T12:16:06.108Z,8.80
2019-03-08T12:18:45.767Z,9.00
2019-03-08T12:21:52.259Z,9.30
2019-03-08T12:24:28.793Z,9.50
2019-03-08T12:27:15.672Z,9.90
2019-03-08T12:30:04.176Z,10.20
2019-03-08T12:32:38.538Z,10.30
2019-03-08T12:35:27.313Z,10.40
2019-03-08T12:38:17.136Z,10.50
2019-03-08T12:41:12.271Z,10.50
2019-03-08T12:43:57.141Z,10.60
2019-03-08T12:46:49.758Z,10.60
2019-03-08T12:49:43.875Z,10.70
2019-03-08T12:52:40.676Z,10.60
2019-03-08T12:55:34.858Z,10.50
2019-03-08T12:58:42.617Z,10.40
2019-03-08T13:01:32.443Z,10.30
2019-03-08T13:04:19.582Z,10.10
2019-03-08T13:07:13.988Z,9.90
2019-03-08T13:09:49.175Z,9.80
2019-03-08T13:12:18.947Z,9.80
2019-03-08T13:14:48.191Z,9.80
2019-03-08T13:17:17.877Z,9.80
2019-03-08T13:19:47.120Z,9.90
2019-03-08T13:22:16.150Z,9.90
2019-03-08T13:24:45.220Z,10.00
2019-03-08T13:27:14.399Z,10.00
2019-03-08T13:29:43.574Z,10.00
2019-03-08T13:32:12.944Z,10.00
2019-03-08T13:34:42.048Z,10.20
2019-03-08T13:37:11.273Z,10.20
2019-03-08T13:39:40.238Z,10.20
2019-03-08T13:42:11.409Z,10.10
2019-03-08T13:44:40.137Z,10.00
2019-03-08T13:47:09.213Z,10.00
2019-03-08T13:49:38.262Z,9.90
2019-03-08T13:52:07.520Z,10.00
2019-03-08T13:54:36.473Z,10.00
2019-03-08T13:57:05.723Z,10.00
2019-03-08T13:59:34.662Z,10.00
2019-03-08T14:02:03.658Z,10.00
2019-03-08T14:04:32.593Z,10.00
2019-03-08T14:07:01.537Z,10.00
2019-03-08T14:09:30.464Z,10.10
2019-03-08T14:11:59.402Z,10.10
2019-03-08T14:14:28.868Z,10.10
2019-03-08T14:16:57.827Z,10.10
2019-03-08T14:19:27.871Z,10.20
2019-03-08T14:21:56.843Z,10.30
2019-03-08T14:24:28.921Z,10.40
2019-03-08T14:26:57.942Z,10.40
2019-03-08T14:29:27.356Z,10.40
2019-03-08T14:32:21.266Z,10.40
2019-03-08T14:34:49.583Z,10.40
2019-03-08T14:37:20.672Z,10.30
2019-03-08T14:39:49.763Z,10.40
2019-03-08T14:42:40.375Z,10.40
2019-03-08T14:45:24.664Z,10.30
2019-03-08T14:47:55.831Z,10.20
2019-03-08T14:50:24.739Z,10.20
2019-03-08T14:52:55.709Z,10.20
2019-03-08T14:55:25.898Z,10.20
2019-03-08T14:57:58.832Z,10.20
2019-03-08T15:00:29.094Z,10.10
2019-03-08T15:02:57.643Z,10.00
2019-03-08T15:05:27.158Z,10.00
2019-03-08T15:07:56.208Z,9.90
2019-03-08T15:10:25.224Z,9.90
2019-03-08T15:12:54.560Z,9.80
2019-03-08T15:15:23.699Z,9.80
2019-03-08T15:17:53.681Z,9.90
2019-03-08T15:20:23.629Z,9.80
2019-03-08T15:22:52.754Z,9.80
2019-03-08T15:25:21.655Z,9.70
2019-03-08T15:27:50.490Z,9.70
2019-03-08T15:30:19.675Z,9.70
2019-03-08T15:32:48.752Z,9.70
2019-03-08T15:35:18.443Z,9.80
2019-03-08T15:37:47.446Z,9.80
2019-03-08T15:40:18.046Z,9.70
2019-03-08T15:42:47.089Z,9.70
2019-03-08T15:45:16.624Z,9.60
2019-03-08T15:47:46.144Z,9.60
2019-03-08T15:50:16.248Z,9.50
2019-03-08T15:52:45.249Z,9.40
2019-03-08T15:55:14.375Z,9.30
2019-03-08T15:57:43.605Z,9.40
2019-03-08T16:00:15.756Z,9.30
2019-03-08T16:02:44.952Z,9.30
2019-03-08T16:05:14.750Z,9.20
2019-03-08T16:07:44.122Z,9.20
2019-03-08T16:10:14.470Z,9.20
2019-03-08T16:12:43.733Z,9.20
2019-03-08T16:15:13.415Z,9.10
2019-03-08T16:17:42.412Z,9.10
2019-03-08T16:20:13.434Z,9.10
2019-03-08T16:22:42.999Z,9.00
2019-03-08T16:25:12.655Z,9.00
2019-03-08T16:27:41.960Z,8.90
2019-03-08T16:30:15.312Z,8.90
2019-03-08T16:32:49.614Z,8.80
2019-03-08T16:35:18.345Z,8.80
2019-03-08T16:38:05.062Z,8.80
2019-03-08T16:40:53.354Z,8.80
2019-03-08T16:43:31.111Z,8.80
2019-03-08T16:46:15.843Z,8.80
2019-03-08T16:49:03.640Z,8.80
2019-03-08T16:51:40.760Z,8.80
2019-03-08T16:54:46.876Z,8.70
2019-03-08T16:57:22.563Z,8.70
2019-03-08T16:59:59.135Z,8.60
2019-03-08T17:02:47.169Z,8.60
2019-03-08T17:05:38.322Z,8.50
2019-03-08T17:08:22.343Z,8.50
2019-03-08T17:11:09.502Z,8.50
2019-03-08T17:13:46.128Z,8.50
2019-03-08T17:16:37.257Z,8.50
2019-03-08T17:19:19.404Z,8.40
2019-03-08T17:22:01.060Z,8.40
2019-03-08T17:24:55.335Z,8.30
2019-03-08T17:27:46.563Z,8.30
2019-03-08T17:30:38.889Z,8.30
2019-03-08T17:33:16.284Z,8.20
2019-03-08T17:36:04.757Z,8.20
2019-03-08T17:38:44.610Z,8.20
2019-03-08T17:41:31.878Z,8.20
2019-03-08T17:44:19.914Z,8.10
2019-03-08T17:46:57.399Z,8.10
2019-03-08T17:49:40.273Z,8.00
2019-03-08T17:52:28.602Z,8.00
2019-03-08T17:55:15.555Z,8.00
2019-03-08T17:58:03.676Z,7.90
2019-03-08T18:00:54.549Z,7.80
2019-03-08T18:03:50.766Z,7.80
2019-03-08T18:06:37.732Z,7.70
2019-03-08T18:09:29.235Z,7.70
2019-03-08T18:12:29.639Z,7.70
2019-03-08T18:15:16.894Z,7.60
2019-03-08T18:17:54.775Z,7.60
2019-03-08T18:20:42.071Z,7.60
2019-03-08T18:23:29.259Z,7.50
2019-03-08T18:26:21.676Z,7.50
2019-03-08T18:29:01.919Z,7.50
2019-03-08T18:31:43.041Z,7.50
2019-03-08T18:34:40.450Z,7.50
2019-03-08T18:37:25.822Z,7.50
2019-03-08T18:40:14.333Z,7.40
2019-03-08T18:43:08.637Z,7.40
2019-03-08T18:45:56.899Z,7.30
2019-03-08T18:48:45.696Z,7.40
2019-03-08T18:51:40.079Z,7.30
2019-03-08T18:54:26.559Z,7.30
2019-03-08T18:57:14.799Z,7.20
2019-03-08T18:59:57.094Z,7.30
2019-03-08T19:02:44.147Z,7.20
2019-03-08T19:05:24.276Z,7.20
2019-03-08T19:08:13.719Z,7.20
2019-03-08T19:11:08.630Z,7.20
2019-03-08T19:13:51.656Z,7.20
2019-03-08T19:16:38.724Z,7.20
2019-03-08T19:19:23.434Z,7.10
2019-03-08T19:22:13.661Z,7.00
2019-03-08T19:24:55.883Z,7.00
2019-03-08T19:27:32.404Z,7.00
2019-03-08T19:30:23.354Z,6.90
2019-03-08T19:33:10.153Z,6.90
2019-03-08T19:36:07.666Z,6.90
2019-03-08T19:38:43.676Z,6.90
2019-03-08T19:41:25.021Z,6.80
2019-03-08T19:44:10.706Z,6.80
2019-03-08T19:46:49.297Z,6.70
2019-03-08T19:49:46.718Z,6.70
2019-03-08T19:52:22.628Z,6.80
2019-03-08T19:55:09.567Z,6.70
2019-03-08T19:57:57.651Z,6.70
2019-03-08T20:00:51.734Z,6.70
2019-03-08T20:03:45.690Z,6.70
2019-03-08T20:06:32.635Z,6.60
2019-03-08T20:09:13.393Z,6.60
2019-03-08T20:11:53.433Z,6.60
2019-03-08T20:14:36.083Z,6.50
2019-03-08T20:17:42.991Z,6.50
2019-03-08T20:20:34.815Z,6.50
2019-03-08T20:23:29.214Z,6.40
2019-03-08T20:26:11.023Z,6.40
2019-03-08T20:29:04.937Z,6.40
2019-03-08T20:31:59.220Z,6.30
2019-03-08T20:34:45.876Z,6.30
2019-03-08T20:37:32.995Z,6.30
2019-03-08T20:40:22.595Z,6.30
2019-03-08T20:43:04.949Z,6.30
2019-03-08T20:45:39.184Z,6.30
2019-03-08T20:48:08.113Z,6.30
2019-03-08T20:50:37.059Z,6.30
2019-03-08T20:53:06.251Z,6.30
2019-03-08T20:55:35.304Z,6.30
2019-03-08T20:58:04.289Z,6.20
2019-03-08T21:00:33.413Z,6.20
2019-03-08T21:03:03.025Z,6.20
2019-03-08T21:05:32.062Z,6.30
2019-03-08T21:08:01.052Z,6.20
2019-03-08T21:10:30.447Z,6.30
2019-03-08T21:12:59.356Z,6.30
2019-03-08T21:15:29.652Z,6.30
2019-03-08T21:17:58.613Z,6.30
2019-03-08T21:20:27.661Z,6.30
2019-03-08T21:22:56.857Z,6.30
2019-03-08T21:25:25.960Z,6.30
2019-03-08T21:27:55.633Z,6.30
2019-03-08T21:30:24.642Z,6.20
2019-03-08T21:32:53.701Z,6.20
2019-03-08T21:35:22.726Z,6.20
2019-03-08T21:37:51.730Z,6.20
2019-03-08T21:40:20.610Z,6.20
2019-03-08T21:42:50.318Z,6.20
2019-03-08T21:45:19.444Z,6.20
2019-03-08T21:47:48.435Z,6.20
2019-03-08T21:50:17.693Z,6.30
2019-03-08T21:52:46.669Z,6.30
2019-03-08T21:55:15.819Z,6.30
2019-03-08T21:57:44.802Z,6.30
2019-03-08T22:00:15.973Z,6.30
2019-03-08T22:02:45.189Z,6.30
2019-03-08T22:05:15.505Z,6.30
2019-03-08T22:07:44.496Z,6.30
2019-03-08T22:10:25.488Z,6.30
2019-03-08T22:12:54.694Z,6.30
2019-03-08T22:15:23.726Z,6.30
2019-03-08T22:17:52.816Z,6.30
2019-03-08T22:20:21.836Z,6.30
2019-03-08T22:22:51.901Z,6.30
2019-03-08T22:25:23.756Z,6.30
2019-03-08T22:27:52.887Z,6.20
2019-03-08T22:30:22.399Z,6.20
2019-03-08T22:32:51.433Z,6.20
2019-03-08T22:35:20.548Z,6.10
2019-03-08T22:37:49.497Z,6.10
2019-03-08T22:40:18.764Z,6.00
2019-03-08T22:42:47.811Z,6.00
2019-03-08T22:45:16.771Z,6.00
2019-03-08T22:47:45.666Z,6.00
2019-03-08T22:50:14.820Z,5.90
2019-03-08T22:52:43.796Z,5.90
2019-03-08T22:55:12.859Z,6.00
2019-03-08T22:57:42.225Z,6.00
2019-03-08T23:01:01.293Z,6.00
2019-03-08T23:03:30.866Z,6.00
2019-03-08T23:05:59.937Z,6.00
2019-03-08T23:08:32.295Z,6.00
2019-03-08T23:11:01.319Z,6.00
2019-03-08T23:13:30.322Z,6.10
2019-03-08T23:15:59.425Z,6.10
2019-03-08T23:18:28.396Z,6.10
2019-03-08T23:20:59.826Z,6.10
2019-03-08T23:23:28.846Z,6.10
2019-03-08T23:25:57.783Z,6.10
2019-03-08T23:29:04.120Z,6.10
2019-03-08T23:32:04.518Z,6.20
2019-03-08T23:34:33.662Z,6.20
2019-03-08T23:37:02.598Z,6.20
2019-03-08T23:39:31.586Z,6.20
2019-03-08T23:42:00.540Z,6.20
2019-03-08T23:44:29.452Z,6.30
2019-03-08T23:46:58.745Z,6.40
2019-03-08T23:49:27.695Z,6.40
2019-03-08T23:51:56.643Z,6.50
2019-03-08T23:54:25.520Z,6.50
2019-03-08T23:56:54.476Z,6.50
2019-03-08T23:59:23.451Z,6.60
